createdAt,value
2023-04-30T00:00:10.747Z,12.33
2023-04-30T00:02:37.801Z,11.00
2023-04-30T00:05:05.053Z,11.70
2023-04-30T00:07:32.266Z,11.37
2023-04-30T00:09:59.132Z,10.67
2023-04-30T00:12:26.025Z,9.03
2023-04-30T00:14:52.954Z,11.70
2023-04-30T00:17:19.814Z,8.87
2023-04-30T00:19:46.660Z,16.43
2023-04-30T00:22:13.569Z,11.97
2023-04-30T00:24:40.439Z,13.13
2023-04-30T00:27:07.259Z,11.27
2023-04-30T00:29:34.058Z,11.87
2023-04-30T00:32:01.024Z,8.77
2023-04-30T00:34:27.806Z,11.47
2023-04-30T00:36:54.682Z,7.97
2023-04-30T00:39:21.510Z,11.33
2023-04-30T00:41:48.336Z,9.80
2023-04-30T00:44:15.148Z,11.57
2023-04-30T00:46:42.297Z,13.23
2023-04-30T00:49:09.240Z,14.87
2023-04-30T00:51:36.783Z,13.30
2023-04-30T00:54:03.925Z,12.00
2023-04-30T00:56:31.754Z,14.17
2023-04-30T00:58:58.865Z,11.13
2023-04-30T01:01:28.445Z,11.77
2023-04-30T01:03:55.832Z,13.77
2023-04-30T01:06:23.052Z,11.40
2023-04-30T01:08:50.139Z,9.67
2023-04-30T01:11:51.290Z,13.77
2023-04-30T01:14:22.622Z,10.70
2023-04-30T01:17:31.259Z,17.50
2023-04-30T01:19:59.105Z,10.77
2023-04-30T01:22:26.013Z,13.80
2023-04-30T01:25:35.713Z,10.93
2023-04-30T01:28:07.068Z,10.27
2023-04-30T01:30:34.723Z,11.70
2023-04-30T01:33:02.398Z,10.93
2023-04-30T01:35:57.187Z,11.17
2023-04-30T01:38:54.677Z,11.83
2023-04-30T01:41:35.218Z,9.80
2023-04-30T01:44:09.384Z,9.90
2023-04-30T01:46:36.393Z,11.47
2023-04-30T01:49:18.415Z,12.33
2023-04-30T01:51:48.352Z,10.57
2023-04-30T01:54:18.396Z,12.70
2023-04-30T01:57:10.874Z,9.33
2023-04-30T01:59:40.709Z,10.30
2023-04-30T02:02:07.548Z,12.17
2023-04-30T02:04:34.569Z,11.53
2023-04-30T02:07:01.508Z,10.07
2023-04-30T02:09:28.324Z,10.70
2023-04-30T02:11:55.171Z,10.63
2023-04-30T02:14:21.957Z,10.20
2023-04-30T02:16:48.863Z,10.03
2023-04-30T02:19:15.677Z,10.20
2023-04-30T02:21:42.547Z,12.73
2023-04-30T02:24:09.371Z,9.73
2023-04-30T02:26:36.208Z,12.63
2023-04-30T02:29:03.210Z,10.20
2023-04-30T02:31:30.185Z,10.07
2023-04-30T02:33:57.036Z,12.53
2023-04-30T02:36:23.882Z,9.63
2023-04-30T02:38:50.726Z,10.33
2023-04-30T02:41:17.587Z,8.80
2023-04-30T02:43:44.436Z,8.60
2023-04-30T02:46:11.259Z,12.20
2023-04-30T02:48:38.062Z,11.23
2023-04-30T02:51:05.261Z,9.37
2023-04-30T02:53:32.197Z,9.50
2023-04-30T02:55:59.264Z,9.50
2023-04-30T02:58:26.675Z,11.50
2023-04-30T03:00:53.550Z,14.30
2023-04-30T03:03:20.735Z,11.33
2023-04-30T03:05:47.786Z,10.40
2023-04-30T03:08:14.692Z,9.67
2023-04-30T03:10:41.560Z,11.40
2023-04-30T03:13:08.674Z,10.87
2023-04-30T03:15:35.521Z,9.43
2023-04-30T03:18:02.367Z,13.17
2023-04-30T03:20:29.301Z,12.50
2023-04-30T03:22:56.081Z,11.67
2023-04-30T03:25:22.929Z,15.27
2023-04-30T03:27:49.731Z,14.27
2023-04-30T03:30:16.625Z,10.57
2023-04-30T03:32:43.582Z,12.67
2023-04-30T03:35:10.943Z,13.20
2023-04-30T03:37:37.849Z,11.03
2023-04-30T03:40:05.092Z,12.67
2023-04-30T03:42:31.919Z,11.30
2023-04-30T03:44:58.724Z,10.80
2023-04-30T03:47:25.600Z,14.33
2023-04-30T03:49:55.734Z,9.93
2023-04-30T03:52:23.370Z,12.03
2023-04-30T03:54:50.301Z,10.93
2023-04-30T03:57:17.274Z,14.97
2023-04-30T03:59:44.219Z,10.20
2023-04-30T04:02:11.123Z,11.13
2023-04-30T04:04:38.112Z,8.57
2023-04-30T04:07:05.040Z,12.13
2023-04-30T04:09:31.924Z,9.73
2023-04-30T04:11:58.717Z,12.10
2023-04-30T04:14:25.578Z,14.33
2023-04-30T04:16:52.453Z,11.53
2023-04-30T04:19:19.482Z,10.37
2023-04-30T04:21:46.312Z,11.97
2023-04-30T04:24:13.163Z,9.57
2023-04-30T04:26:40.022Z,11.97
2023-04-30T04:29:09.210Z,12.87
2023-04-30T04:31:36.166Z,10.97
2023-04-30T04:34:04.661Z,11.03
2023-04-30T04:36:34.123Z,10.97
2023-04-30T04:39:04.323Z,11.50
2023-04-30T04:41:32.854Z,11.00
2023-04-30T04:44:01.915Z,10.13
2023-04-30T04:46:29.871Z,12.07
2023-04-30T04:48:56.759Z,11.23
2023-04-30T04:51:24.201Z,11.27
2023-04-30T04:53:51.276Z,12.93
2023-04-30T04:56:18.182Z,12.00
2023-04-30T04:58:45.394Z,11.20
2023-04-30T05:01:12.283Z,12.30
2023-04-30T05:03:39.436Z,12.77
2023-04-30T05:06:06.474Z,10.47
2023-04-30T05:08:33.386Z,12.00
2023-04-30T05:11:00.184Z,10.80
2023-04-30T05:13:27.003Z,10.93
2023-04-30T05:15:54.717Z,12.30
2023-04-30T05:18:21.597Z,10.57
2023-04-30T05:20:48.841Z,10.30
2023-04-30T05:23:15.728Z,10.20
2023-04-30T05:25:42.553Z,13.73
2023-04-30T05:28:09.378Z,10.50
2023-04-30T05:30:36.750Z,10.67
2023-04-30T05:33:03.764Z,11.67
2023-04-30T05:35:31.687Z,13.67
2023-04-30T05:37:58.593Z,11.47
2023-04-30T05:40:25.392Z,11.17
2023-04-30T05:42:52.298Z,11.10
2023-04-30T05:45:19.264Z,14.37
2023-04-30T05:47:46.150Z,12.40
2023-04-30T05:50:13.200Z,11.77
2023-04-30T05:52:40.036Z,12.43
2023-04-30T05:55:07.714Z,13.37
2023-04-30T05:57:35.515Z,12.23
2023-04-30T06:00:02.488Z,13.13
2023-04-30T06:02:29.390Z,10.37
2023-04-30T06:04:56.726Z,11.43
2023-04-30T06:07:23.609Z,11.37
2023-04-30T06:09:50.416Z,10.97
2023-04-30T06:12:17.346Z,10.63
2023-04-30T06:14:45.921Z,11.77
2023-04-30T06:17:13.777Z,9.77
2023-04-30T06:19:40.560Z,8.77
2023-04-30T06:22:07.380Z,9.87
2023-04-30T06:24:34.227Z,10.77
2023-04-30T06:27:01.639Z,11.63
2023-04-30T06:29:28.477Z,9.80
2023-04-30T06:31:55.970Z,10.33
2023-04-30T06:34:23.038Z,9.93
2023-04-30T06:36:50.045Z,9.10
2023-04-30T06:39:17.131Z,7.83
2023-04-30T06:41:44.123Z,7.47
2023-04-30T06:44:11.160Z,11.60
2023-04-30T06:46:38.097Z,8.83
2023-04-30T06:49:04.952Z,8.87
2023-04-30T06:51:31.943Z,11.73
2023-04-30T06:53:58.782Z,8.70
2023-04-30T06:56:25.893Z,9.60
2023-04-30T06:58:52.689Z,13.17
2023-04-30T07:01:19.591Z,9.30
2023-04-30T07:03:46.500Z,9.93
2023-04-30T07:06:13.464Z,10.63
2023-04-30T07:08:41.361Z,7.73
2023-04-30T07:11:08.306Z,10.90
2023-04-30T07:13:35.093Z,11.13
2023-04-30T07:16:01.976Z,10.17
2023-04-30T07:18:28.808Z,10.43
2023-04-30T07:20:55.702Z,8.43
2023-04-30T07:23:22.495Z,8.90
2023-04-30T07:25:49.706Z,10.30
2023-04-30T07:28:16.463Z,9.83
2023-04-30T07:30:43.301Z,9.63
2023-04-30T07:33:10.299Z,9.93
2023-04-30T07:35:37.160Z,7.97
2023-04-30T07:38:05.909Z,8.63
2023-04-30T07:40:36.323Z,9.43
2023-04-30T07:43:05.169Z,10.73
2023-04-30T07:45:34.940Z,9.70
2023-04-30T07:48:01.989Z,9.73
2023-04-30T07:50:33.653Z,9.50
2023-04-30T07:53:02.156Z,11.93
2023-04-30T07:55:29.321Z,10.90
2023-04-30T07:57:56.168Z,7.97
2023-04-30T08:00:23.206Z,10.13
2023-04-30T08:02:50.879Z,8.40
2023-04-30T08:05:18.040Z,9.80
2023-04-30T08:07:44.985Z,11.40
2023-04-30T08:10:12.028Z,8.97
2023-04-30T08:12:39.044Z,11.07
2023-04-30T08:15:07.570Z,11.27
2023-04-30T08:17:34.923Z,7.43
2023-04-30T08:20:04.025Z,9.67
2023-04-30T08:22:31.358Z,9.47
2023-04-30T08:24:58.311Z,8.57
2023-04-30T08:27:25.296Z,10.00
2023-04-30T08:29:52.407Z,13.43
2023-04-30T08:32:19.952Z,7.93
2023-04-30T08:34:46.852Z,8.37
2023-04-30T08:37:13.706Z,8.73
2023-04-30T08:39:40.605Z,9.30
2023-04-30T08:42:09.804Z,9.87
2023-04-30T08:44:44.018Z,7.73
2023-04-30T08:47:14.456Z,9.63
2023-04-30T08:49:41.932Z,9.77
2023-04-30T08:52:09.637Z,7.97
2023-04-30T08:54:37.111Z,7.17
2023-04-30T08:57:04.725Z,7.53
2023-04-30T08:59:31.815Z,10.90
2023-04-30T09:02:01.205Z,8.23
2023-04-30T09:04:28.541Z,10.10
2023-04-30T09:06:59.059Z,6.50
2023-04-30T09:09:30.835Z,9.13
2023-04-30T09:12:15.765Z,9.50
2023-04-30T09:15:03.523Z,9.47
2023-04-30T09:17:31.391Z,8.37
2023-04-30T09:20:12.221Z,6.87
2023-04-30T09:22:41.049Z,7.90
2023-04-30T09:25:09.784Z,7.20
2023-04-30T09:27:36.628Z,7.30
2023-04-30T09:30:04.616Z,6.07
2023-04-30T09:32:31.918Z,6.80
2023-04-30T09:34:58.665Z,5.47
2023-04-30T09:37:39.078Z,10.30
2023-04-30T09:40:06.723Z,7.20
2023-04-30T09:42:33.621Z,6.93
2023-04-30T09:45:00.418Z,6.90
2023-04-30T09:47:31.736Z,6.80
2023-04-30T09:50:00.589Z,7.27
2023-04-30T09:52:27.552Z,6.13
2023-04-30T09:54:54.436Z,6.67
2023-04-30T09:57:24.111Z,6.70
2023-04-30T09:59:53.744Z,5.37
2023-04-30T10:02:23.478Z,4.97
2023-04-30T10:04:59.243Z,5.93
2023-04-30T10:07:33.378Z,6.30
2023-04-30T10:10:07.649Z,4.57
2023-04-30T10:12:34.513Z,4.87
2023-04-30T10:15:24.865Z,4.07
2023-04-30T10:18:05.454Z,4.77
2023-04-30T10:20:36.676Z,4.20
2023-04-30T10:23:03.914Z,5.00
2023-04-30T10:25:31.627Z,5.80
2023-04-30T10:27:58.466Z,7.00
2023-04-30T10:30:26.052Z,7.00
2023-04-30T10:32:55.643Z,5.93
2023-04-30T10:35:45.207Z,5.63
2023-04-30T10:38:22.113Z,9.40
2023-04-30T10:40:49.627Z,6.70
2023-04-30T10:43:19.629Z,6.30
2023-04-30T10:45:47.317Z,6.17
2023-04-30T10:48:16.578Z,6.67
2023-04-30T10:50:46.258Z,7.13
2023-04-30T10:53:19.790Z,6.07
2023-04-30T10:56:13.426Z,6.67
2023-04-30T10:58:40.682Z,6.53
2023-04-30T11:01:09.104Z,6.63
2023-04-30T11:03:37.325Z,6.40
2023-04-30T11:06:15.087Z,7.30
2023-04-30T11:08:46.588Z,6.53
2023-04-30T11:11:21.240Z,5.17
2023-04-30T11:13:57.925Z,5.67
2023-04-30T11:16:32.123Z,7.03
2023-04-30T11:19:13.282Z,6.07
2023-04-30T11:22:03.372Z,7.27
2023-04-30T11:24:55.455Z,4.13
2023-04-30T11:27:27.872Z,5.50
2023-04-30T11:29:55.975Z,4.83
2023-04-30T11:32:25.213Z,5.13
2023-04-30T11:34:52.216Z,5.00
2023-04-30T11:37:30.563Z,5.33
2023-04-30T11:40:00.325Z,3.80
2023-04-30T11:42:27.098Z,5.00
2023-04-30T11:44:53.878Z,4.30
2023-04-30T11:47:20.947Z,4.87
2023-04-30T11:49:51.927Z,5.17
2023-04-30T11:52:21.905Z,5.53
2023-04-30T11:54:48.785Z,3.30
2023-04-30T11:57:15.685Z,4.57
2023-04-30T11:59:43.803Z,4.90
2023-04-30T12:02:15.901Z,3.87
2023-04-30T12:04:47.153Z,5.27
2023-04-30T12:07:14.100Z,3.90
2023-04-30T12:09:57.370Z,4.83
2023-04-30T12:12:31.118Z,3.10
2023-04-30T12:14:58.193Z,3.70
2023-04-30T12:17:35.732Z,4.50
2023-04-30T12:20:02.761Z,2.80
2023-04-30T12:22:29.676Z,3.33
2023-04-30T12:24:59.416Z,3.97
2023-04-30T12:27:26.348Z,3.23
2023-04-30T12:29:55.065Z,3.23
2023-04-30T12:32:22.865Z,3.17
2023-04-30T12:34:50.342Z,3.87
2023-04-30T12:37:17.541Z,2.90
2023-04-30T12:39:44.570Z,3.20
2023-04-30T12:42:11.534Z,5.10
2023-04-30T12:44:45.318Z,3.77
2023-04-30T12:47:12.833Z,3.27
2023-04-30T12:49:39.845Z,4.27
2023-04-30T12:52:11.489Z,5.40
2023-04-30T12:54:39.378Z,3.67
2023-04-30T12:57:08.192Z,7.17
2023-04-30T12:59:40.592Z,3.67
2023-04-30T13:02:12.992Z,4.23
2023-04-30T13:04:41.950Z,3.03
2023-04-30T13:07:09.421Z,3.40
2023-04-30T13:09:37.334Z,3.50
2023-04-30T13:12:04.657Z,5.20
2023-04-30T13:14:32.138Z,3.30
2023-04-30T13:16:59.589Z,3.30
2023-04-30T13:19:26.933Z,3.10
2023-04-30T13:21:53.835Z,2.87
2023-04-30T13:24:20.668Z,3.63
2023-04-30T13:26:48.279Z,2.57
2023-04-30T13:29:15.140Z,2.53
2023-04-30T13:31:42.534Z,3.23
2023-04-30T13:34:10.175Z,3.07
2023-04-30T13:36:37.186Z,3.33
2023-04-30T13:39:04.946Z,3.20
2023-04-30T13:41:32.119Z,2.80
2023-04-30T13:44:00.296Z,3.90
2023-04-30T13:46:27.194Z,3.07
2023-04-30T13:48:54.152Z,3.70
2023-04-30T13:51:21.196Z,2.23
2023-04-30T13:53:48.131Z,2.20
2023-04-30T13:56:15.577Z,2.40
2023-04-30T13:58:42.411Z,2.30
2023-04-30T14:01:10.517Z,2.57
2023-04-30T14:03:37.625Z,3.10
2023-04-30T14:06:06.045Z,2.23
2023-04-30T14:08:33.880Z,4.40
2023-04-30T14:11:01.649Z,3.10
2023-04-30T14:13:28.513Z,4.63
2023-04-30T14:15:56.275Z,2.13
2023-04-30T14:18:23.508Z,1.73
2023-04-30T14:20:51.044Z,4.53
2023-04-30T14:23:18.028Z,2.30
2023-04-30T14:25:44.911Z,2.10
2023-04-30T14:28:11.991Z,3.03
2023-04-30T14:30:39.065Z,4.43
2023-04-30T14:33:05.967Z,1.93
2023-04-30T14:35:33.594Z,2.53
2023-04-30T14:38:00.515Z,2.40
2023-04-30T14:40:27.453Z,3.50
2023-04-30T14:42:54.316Z,2.47
2023-04-30T14:45:21.362Z,3.27
2023-04-30T14:47:48.982Z,2.40
2023-04-30T14:50:15.984Z,3.57
2023-04-30T14:52:43.200Z,3.43
2023-04-30T14:55:10.179Z,2.70
2023-04-30T14:57:37.090Z,3.40
2023-04-30T15:00:04.647Z,2.20
2023-04-30T15:02:31.930Z,3.20
2023-04-30T15:04:58.859Z,3.40
2023-04-30T15:07:25.780Z,2.40
2023-04-30T15:09:53.042Z,2.50
2023-04-30T15:12:20.295Z,2.23
2023-04-30T15:14:47.219Z,2.70
2023-04-30T15:17:14.432Z,1.90
2023-04-30T15:19:41.349Z,3.07
2023-04-30T15:22:08.283Z,4.87
2023-04-30T15:24:36.310Z,3.43
2023-04-30T15:27:04.440Z,3.13
2023-04-30T15:29:31.610Z,2.83
2023-04-30T15:31:59.690Z,2.60
2023-04-30T15:34:26.687Z,1.97
2023-04-30T15:36:53.672Z,1.70
2023-04-30T15:39:21.108Z,1.40
2023-04-30T15:41:48.035Z,5.23
2023-04-30T15:44:15.056Z,3.93
2023-04-30T15:46:42.177Z,2.40
2023-04-30T15:49:09.207Z,2.37
2023-04-30T15:51:36.774Z,2.33
2023-04-30T15:54:03.607Z,3.37
2023-04-30T15:56:30.673Z,4.03
2023-04-30T15:58:57.821Z,2.87
2023-04-30T16:01:24.839Z,1.97
2023-04-30T16:03:52.259Z,1.77
2023-04-30T16:06:19.883Z,2.07
2023-04-30T16:08:47.136Z,2.43
2023-04-30T16:11:13.939Z,1.93
2023-04-30T16:13:40.770Z,1.60
2023-04-30T16:16:11.224Z,2.60
2023-04-30T16:18:38.157Z,6.10
2023-04-30T16:21:09.216Z,2.47
2023-04-30T16:23:36.790Z,2.60
2023-04-30T16:26:03.672Z,1.60
2023-04-30T16:28:31.239Z,2.77
2023-04-30T16:30:58.700Z,2.70
2023-04-30T16:33:25.633Z,1.73
2023-04-30T16:35:52.621Z,1.87
2023-04-30T16:38:20.552Z,2.30
2023-04-30T16:40:47.923Z,1.40
2023-04-30T16:43:14.871Z,3.00
2023-04-30T16:45:41.877Z,1.70
2023-04-30T16:48:08.721Z,1.67
2023-04-30T16:50:35.669Z,1.40
2023-04-30T16:53:02.477Z,1.93
2023-04-30T16:55:29.348Z,1.30
2023-04-30T16:57:56.363Z,1.13
2023-04-30T17:00:23.292Z,1.53
2023-04-30T17:02:53.035Z,1.83
2023-04-30T17:05:21.378Z,1.60
2023-04-30T17:07:49.378Z,2.03
2023-04-30T17:10:18.318Z,2.27
2023-04-30T17:12:46.045Z,2.70
2023-04-30T17:15:13.107Z,4.27
2023-04-30T17:17:40.051Z,2.40
2023-04-30T17:20:07.727Z,3.40
2023-04-30T17:22:34.702Z,2.33
2023-04-30T17:25:02.252Z,1.80
2023-04-30T17:27:29.138Z,4.30
2023-04-30T17:29:56.803Z,2.37
2023-04-30T17:32:24.852Z,1.93
2023-04-30T17:34:51.651Z,2.13
2023-04-30T17:37:18.591Z,1.90
2023-04-30T17:39:45.742Z,2.60
2023-04-30T17:42:13.388Z,2.30
2023-04-30T17:44:40.193Z,1.93
2023-04-30T17:47:07.649Z,2.57
2023-04-30T17:49:34.521Z,2.67
2023-04-30T17:52:01.386Z,2.83
2023-04-30T17:54:31.468Z,2.40
2023-04-30T17:56:59.221Z,3.03
2023-04-30T17:59:27.949Z,2.73
2023-04-30T18:01:54.860Z,1.07
2023-04-30T18:04:22.731Z,1.83
2023-04-30T18:06:49.994Z,1.67
2023-04-30T18:09:17.461Z,1.20
2023-04-30T18:11:44.697Z,1.20
2023-04-30T18:14:11.670Z,1.67
2023-04-30T18:16:38.679Z,0.90
2023-04-30T18:19:05.566Z,1.50
2023-04-30T18:21:32.467Z,1.40
2023-04-30T18:23:59.546Z,1.23
2023-04-30T18:26:26.335Z,1.63
2023-04-30T18:28:53.442Z,1.67
2023-04-30T18:31:20.578Z,1.40
2023-04-30T18:33:47.669Z,3.30
2023-04-30T18:36:14.541Z,1.63
2023-04-30T18:38:41.351Z,2.10
2023-04-30T18:41:08.221Z,1.20
2023-04-30T18:43:37.310Z,1.67
2023-04-30T18:46:05.891Z,1.23
2023-04-30T18:48:33.248Z,1.50
2023-04-30T18:51:00.554Z,1.90
2023-04-30T18:53:27.400Z,2.93
2023-04-30T18:55:56.015Z,2.43
2023-04-30T18:58:23.235Z,0.80
2023-04-30T19:00:50.058Z,2.17
2023-04-30T19:03:17.118Z,1.97
2023-04-30T19:05:44.096Z,1.47
2023-04-30T19:08:10.957Z,3.63
2023-04-30T19:10:37.849Z,4.37
2023-04-30T19:13:04.747Z,4.83
2023-04-30T19:15:31.575Z,3.90
2023-04-30T19:17:58.805Z,1.77
2023-04-30T19:20:25.767Z,1.73
2023-04-30T19:22:52.636Z,1.57
2023-04-30T19:25:19.509Z,1.37
2023-04-30T19:27:47.192Z,1.83
2023-04-30T19:30:14.558Z,1.20
2023-04-30T19:32:41.491Z,2.30
2023-04-30T19:35:08.684Z,2.20
2023-04-30T19:37:36.428Z,1.53
2023-04-30T19:40:06.916Z,1.37
2023-04-30T19:42:33.968Z,1.70
2023-04-30T19:45:00.847Z,2.10
2023-04-30T19:47:27.683Z,1.13
2023-04-30T19:49:55.225Z,3.03
2023-04-30T19:52:22.217Z,1.47
2023-04-30T19:54:50.249Z,2.23
2023-04-30T19:57:20.143Z,1.63
2023-04-30T19:59:47.464Z,1.90
2023-04-30T20:02:15.123Z,2.47
2023-04-30T20:04:42.189Z,1.13
2023-04-30T20:07:09.162Z,2.67
2023-04-30T20:09:37.355Z,2.73
2023-04-30T20:12:04.496Z,2.30
2023-04-30T20:14:31.512Z,2.40
2023-04-30T20:16:58.490Z,2.40
2023-04-30T20:19:26.040Z,3.37
2023-04-30T20:21:54.104Z,3.83
2023-04-30T20:24:22.052Z,1.50
2023-04-30T20:26:48.921Z,2.23
2023-04-30T20:29:15.956Z,2.97
2023-04-30T20:31:43.322Z,1.40
2023-04-30T20:34:10.307Z,6.90
2023-04-30T20:36:37.214Z,2.97
2023-04-30T20:39:04.048Z,3.83
2023-04-30T20:41:31.294Z,2.73
2023-04-30T20:43:59.982Z,1.70
2023-04-30T20:46:28.465Z,2.97
2023-04-30T20:49:01.181Z,2.80
2023-04-30T20:51:28.513Z,2.17
2023-04-30T20:53:55.396Z,1.60
2023-04-30T20:56:22.695Z,3.27
2023-04-30T20:58:49.455Z,2.60
2023-04-30T21:01:16.438Z,2.47
2023-04-30T21:03:43.426Z,1.93
2023-04-30T21:06:11.159Z,2.43
2023-04-30T21:08:38.106Z,3.93
2023-04-30T21:11:06.101Z,2.00
2023-04-30T21:13:32.982Z,3.53
2023-04-30T21:15:59.904Z,4.40
2023-04-30T21:18:27.087Z,3.93
2023-04-30T21:20:56.365Z,2.83
2023-04-30T21:23:23.317Z,4.70
2023-04-30T21:25:54.294Z,2.70
2023-04-30T21:28:21.268Z,2.80
2023-04-30T21:30:48.299Z,4.17
2023-04-30T21:33:15.436Z,2.80
2023-04-30T21:35:42.318Z,4.93
2023-04-30T21:38:11.006Z,1.70
2023-04-30T21:40:37.982Z,2.43
2023-04-30T21:43:04.996Z,5.20
2023-04-30T21:45:34.914Z,3.03
2023-04-30T21:48:01.798Z,2.20
2023-04-30T21:50:28.662Z,2.73
2023-04-30T21:52:55.468Z,1.93
2023-04-30T21:55:22.390Z,3.07
2023-04-30T21:57:51.204Z,3.23
2023-04-30T22:00:18.837Z,3.60
2023-04-30T22:02:45.778Z,4.20
2023-04-30T22:05:13.080Z,2.07
2023-04-30T22:07:40.732Z,1.90
2023-04-30T22:10:08.146Z,2.67
2023-04-30T22:12:35.542Z,3.63
2023-04-30T22:15:03.063Z,3.43
2023-04-30T22:17:30.039Z,2.10
2023-04-30T22:19:57.955Z,3.10
2023-04-30T22:22:25.124Z,5.07
2023-04-30T22:24:52.373Z,1.93
2023-04-30T22:27:19.170Z,2.70
2023-04-30T22:29:49.614Z,3.60
2023-04-30T22:32:17.215Z,2.57
2023-04-30T22:34:44.000Z,3.60
2023-04-30T22:37:11.023Z,4.13
2023-04-30T22:39:38.833Z,8.00
2023-04-30T22:42:05.989Z,3.73
2023-04-30T22:44:33.565Z,2.73
2023-04-30T22:47:01.736Z,2.27
2023-04-30T22:49:31.605Z,3.03
2023-04-30T22:51:59.808Z,2.70
2023-04-30T22:54:26.908Z,3.20
2023-04-30T22:56:53.798Z,2.60
2023-04-30T22:59:20.744Z,4.20
2023-04-30T23:01:47.593Z,8.93
2023-04-30T23:04:14.532Z,5.60
2023-04-30T23:06:42.936Z,4.90
2023-04-30T23:09:10.244Z,2.97
2023-04-30T23:11:37.173Z,3.87
2023-04-30T23:14:04.352Z,5.23
2023-04-30T23:16:31.276Z,2.73
2023-04-30T23:18:58.363Z,2.77
2023-04-30T23:21:25.304Z,3.43
2023-04-30T23:23:52.145Z,4.40
2023-04-30T23:26:18.965Z,4.33
2023-04-30T23:28:45.828Z,4.53
2023-04-30T23:31:12.941Z,3.53
2023-04-30T23:33:39.728Z,3.40
2023-04-30T23:36:06.927Z,2.63
2023-04-30T23:38:33.707Z,3.77
2023-04-30T23:41:00.688Z,4.03
2023-04-30T23:43:29.721Z,2.50
2023-04-30T23:46:00.157Z,3.17
2023-04-30T23:48:27.250Z,4.10
2023-04-30T23:51:05.032Z,3.40
2023-04-30T23:53:32.239Z,4.83
2023-04-30T23:55:59.679Z,5.03
2023-04-30T23:58:27.503Z,5.60
